createdAt,value
2018-11-13T00:00:29.659Z,83.27
2018-11-13T00:02:58.993Z,83.63
2018-11-13T00:05:28.717Z,84.91
2018-11-13T00:07:58.031Z,84.42
2018-11-13T00:10:27.009Z,85.21
2018-11-13T00:12:56.451Z,84.78
2018-11-13T00:15:25.868Z,84.43
2018-11-13T00:17:54.426Z,84.29
2018-11-13T00:20:22.947Z,85.81
2018-11-13T00:22:51.499Z,85.46
2018-11-13T00:25:20.898Z,85.77
2018-11-13T00:27:49.449Z,85.61
2018-11-13T00:30:22.152Z,85.93
2018-11-13T00:32:51.919Z,85.67
2018-11-13T00:35:21.027Z,85.60
2018-11-13T00:37:50.287Z,85.59
2018-11-13T00:40:19.349Z,85.95
2018-11-13T00:42:48.388Z,86.05
2018-11-13T00:45:16.989Z,86.93
2018-11-13T00:47:46.137Z,87.08
2018-11-13T00:50:17.107Z,88.01
2018-11-13T00:52:47.178Z,87.76
2018-11-13T00:55:16.950Z,87.77
2018-11-13T00:57:46.761Z,87.37
2018-11-13T01:00:17.766Z,88.23
2018-11-13T01:02:48.435Z,87.90
2018-11-13T01:05:19.355Z,88.50
2018-11-13T01:07:50.034Z,88.71
2018-11-13T01:10:20.319Z,88.79
2018-11-13T01:12:50.087Z,88.74
2018-11-13T01:15:19.926Z,88.33
2018-11-13T01:17:50.102Z,88.51
2018-11-13T01:20:20.007Z,88.99
2018-11-13T01:22:49.611Z,88.81
2018-11-13T01:25:19.109Z,89.12
2018-11-13T01:27:47.788Z,89.00
2018-11-13T01:30:18.409Z,89.45
2018-11-13T01:32:48.054Z,89.19
2018-11-13T01:35:18.584Z,89.83
2018-11-13T01:37:48.010Z,90.12
2018-11-13T01:40:19.234Z,89.55
2018-11-13T01:42:47.802Z,89.98
2018-11-13T01:45:18.552Z,90.63
2018-11-13T01:47:47.120Z,91.04
2018-11-13T01:50:17.625Z,90.52
2018-11-13T01:52:47.501Z,90.45
2018-11-13T01:55:17.164Z,90.34
2018-11-13T01:57:46.838Z,90.56
2018-11-13T02:00:21.678Z,89.94
2018-11-13T02:02:52.426Z,90.27
2018-11-13T02:05:23.261Z,90.25
2018-11-13T02:07:53.590Z,90.45
2018-11-13T02:10:23.460Z,90.32
2018-11-13T02:12:52.571Z,90.14
2018-11-13T02:15:21.909Z,89.66
2018-11-13T02:17:51.415Z,90.16
2018-11-13T02:20:22.185Z,90.05
2018-11-13T02:22:51.650Z,90.22
2018-11-13T02:25:21.068Z,90.63
2018-11-13T02:27:50.753Z,90.27
2018-11-13T02:30:22.500Z,90.50
2018-11-13T02:32:51.589Z,90.77
2018-11-13T02:35:21.230Z,90.36
2018-11-13T02:37:50.771Z,90.81
2018-11-13T02:40:20.254Z,90.52
2018-11-13T02:42:49.703Z,90.74
2018-11-13T02:45:20.022Z,91.24
2018-11-13T02:47:48.601Z,92.26
2018-11-13T02:50:19.324Z,92.47
2018-11-13T02:52:47.934Z,91.69
2018-11-13T02:55:16.592Z,91.98
2018-11-13T02:57:46.338Z,92.22
2018-11-13T03:00:21.227Z,92.02
2018-11-13T03:02:50.123Z,92.11
2018-11-13T03:05:19.838Z,92.07
2018-11-13T03:07:48.455Z,91.81
2018-11-13T03:10:18.194Z,92.05
2018-11-13T03:12:46.945Z,92.94
2018-11-13T03:15:18.845Z,93.20
2018-11-13T03:17:47.452Z,93.41
2018-11-13T03:20:18.040Z,92.86
2018-11-13T03:22:47.129Z,92.58
2018-11-13T03:25:18.705Z,92.00
2018-11-13T03:27:48.138Z,92.20
2018-11-13T03:30:19.779Z,91.91
2018-11-13T03:32:49.618Z,91.85
2018-11-13T03:35:19.185Z,92.42
2018-11-13T03:37:48.684Z,92.51
2018-11-13T03:40:18.539Z,92.54
2018-11-13T03:42:48.083Z,91.90
2018-11-13T03:45:18.050Z,91.57
2018-11-13T03:47:47.613Z,92.15
2018-11-13T03:50:19.293Z,92.07
2018-11-13T03:52:48.788Z,91.64
2018-11-13T03:55:19.038Z,91.99
2018-11-13T03:57:48.349Z,90.98
2018-11-13T04:00:19.820Z,91.03
2018-11-13T04:02:49.292Z,90.56
2018-11-13T04:05:18.782Z,90.00
2018-11-13T04:07:49.454Z,90.76
2018-11-13T04:10:19.821Z,90.58
2018-11-13T04:12:49.538Z,90.67
2018-11-13T04:15:21.344Z,90.21
2018-11-13T04:17:49.947Z,90.63
2018-11-13T04:20:20.595Z,90.17
2018-11-13T04:22:49.537Z,89.94
2018-11-13T04:25:19.007Z,90.04
2018-11-13T04:27:47.547Z,90.59
2018-11-13T04:30:17.822Z,89.90
2018-11-13T04:32:47.151Z,89.76
2018-11-13T04:35:17.802Z,90.75
2018-11-13T04:37:47.538Z,90.75
2018-11-13T04:40:18.292Z,90.52
2018-11-13T04:42:48.286Z,90.04
2018-11-13T04:45:19.029Z,89.51
2018-11-13T04:47:48.357Z,90.21
2018-11-13T04:50:18.958Z,90.05
2018-11-13T04:52:47.529Z,91.15
2018-11-13T04:55:16.911Z,90.70
2018-11-13T04:57:47.468Z,90.38
2018-11-13T05:00:17.930Z,89.74
2018-11-13T05:02:46.973Z,88.54
2018-11-13T05:05:17.442Z,89.31
2018-11-13T05:07:47.984Z,89.57
2018-11-13T05:10:17.638Z,88.86
2018-11-13T05:12:47.266Z,89.77
2018-11-13T05:15:16.560Z,89.90
2018-11-13T05:17:46.269Z,88.82
2018-11-13T05:20:16.396Z,87.42
2018-11-13T05:22:46.370Z,88.15
2018-11-13T05:25:17.050Z,86.66
2018-11-13T05:27:46.704Z,86.79
2018-11-13T05:30:17.173Z,87.56
2018-11-13T05:32:46.739Z,87.84
2018-11-13T05:35:17.055Z,88.61
2018-11-13T05:37:46.802Z,89.29
2018-11-13T05:40:18.966Z,89.28
2018-11-13T05:42:47.577Z,90.03
2018-11-13T05:45:17.692Z,89.97
2018-11-13T05:47:46.940Z,90.34
2018-11-13T05:50:16.637Z,90.77
2018-11-13T05:52:47.124Z,89.87
2018-11-13T05:55:16.969Z,89.42
2018-11-13T05:57:45.807Z,88.77
2018-11-13T06:00:17.389Z,88.38
2018-11-13T06:02:47.346Z,88.70
2018-11-13T06:05:16.956Z,89.29
2018-11-13T06:07:46.537Z,90.15
2018-11-13T06:10:15.615Z,90.14
2018-11-13T06:12:44.545Z,90.59
2018-11-13T06:15:14.842Z,91.66
2018-11-13T06:17:44.321Z,91.82
2018-11-13T06:20:15.151Z,92.11
2018-11-13T06:22:45.470Z,90.81
2018-11-13T06:25:16.786Z,91.09
2018-11-13T06:27:47.367Z,90.67
2018-11-13T06:30:19.316Z,90.03
2018-11-13T06:32:48.460Z,91.43
2018-11-13T06:35:16.976Z,91.51
2018-11-13T06:37:47.053Z,90.82
2018-11-13T06:40:16.556Z,90.86
2018-11-13T06:42:46.759Z,90.56
2018-11-13T06:45:18.802Z,90.94
2018-11-13T06:47:48.023Z,90.79
2018-11-13T06:50:17.514Z,91.96
2018-11-13T06:52:47.908Z,93.19
2018-11-13T06:55:21.063Z,93.31
2018-11-13T06:57:49.699Z,92.45
2018-11-13T07:00:18.335Z,91.86
2018-11-13T07:02:47.799Z,91.54
2018-11-13T07:05:18.024Z,91.93
2018-11-13T07:07:46.905Z,92.02
2018-11-13T07:10:18.921Z,93.27
2018-11-13T07:12:49.464Z,92.52
2018-11-13T07:15:21.117Z,94.23
2018-11-13T07:17:52.887Z,93.92
2018-11-13T07:20:23.589Z,94.88
2018-11-13T07:22:52.176Z,94.65
2018-11-13T07:25:22.104Z,94.84
2018-11-13T07:30:21.129Z,93.18
2018-11-13T07:32:50.582Z,92.95
2018-11-13T07:35:20.911Z,93.18
2018-11-13T07:37:55.026Z,92.53
2018-11-13T07:40:23.636Z,91.75
2018-11-13T07:42:52.435Z,92.37
2018-11-13T07:45:21.832Z,92.55
2018-11-13T07:47:51.789Z,93.35
2018-11-13T07:50:21.236Z,93.71
2018-11-13T07:52:50.758Z,94.10
2018-11-13T07:55:20.383Z,95.00
2018-11-13T07:57:50.005Z,94.89
2018-11-13T08:00:21.396Z,94.44
2018-11-13T08:02:52.170Z,94.99
2018-11-13T08:05:21.983Z,95.23
2018-11-13T08:07:51.464Z,95.02
2018-11-13T08:10:20.933Z,95.34
2018-11-13T08:12:50.478Z,95.82
2018-11-13T08:15:20.480Z,95.99
2018-11-13T08:17:49.875Z,95.94
2018-11-13T08:20:18.447Z,95.17
2018-11-13T08:22:47.081Z,95.43
2018-11-13T08:25:16.418Z,94.89
2018-11-13T08:27:45.785Z,94.90
2018-11-13T08:30:16.666Z,94.57
2018-11-13T08:32:46.916Z,93.45
2018-11-13T08:35:16.877Z,93.35
2018-11-13T08:37:45.883Z,94.10
2018-11-13T08:40:15.737Z,94.42
2018-11-13T08:42:45.014Z,94.78
2018-11-13T08:45:15.800Z,94.71
2018-11-13T08:47:45.255Z,95.16
2018-11-13T08:50:15.544Z,94.59
2018-11-13T08:52:45.056Z,94.75
2018-11-13T08:55:15.357Z,94.08
2018-11-13T08:57:46.356Z,94.79
2018-11-13T09:00:16.529Z,94.01
2018-11-13T09:02:46.317Z,93.87
2018-11-13T09:05:16.862Z,94.52
2018-11-13T09:07:47.520Z,94.76
2018-11-13T09:10:18.180Z,95.23
2018-11-13T09:12:47.994Z,94.79
2018-11-13T09:15:18.983Z,94.76
2018-11-13T09:17:48.990Z,94.48
2018-11-13T09:20:19.685Z,94.09
2018-11-13T09:22:48.404Z,94.11
2018-11-13T09:25:20.099Z,93.98
2018-11-13T09:27:48.659Z,94.06
2018-11-13T09:30:19.420Z,94.75
2018-11-13T09:32:50.053Z,93.43
2018-11-13T09:35:19.341Z,93.49
2018-11-13T09:37:47.815Z,93.51
2018-11-13T09:40:18.147Z,92.83
2018-11-13T09:42:47.845Z,93.66
2018-11-13T09:45:17.691Z,94.06
2018-11-13T09:47:48.122Z,93.94
2018-11-13T09:50:17.998Z,94.00
2018-11-13T09:52:47.851Z,94.00
2018-11-13T09:55:17.908Z,93.65
2018-11-13T09:57:46.495Z,93.25
2018-11-13T10:00:20.183Z,93.55
2018-11-13T10:02:51.618Z,93.71
2018-11-13T10:05:20.742Z,93.50
2018-11-13T10:07:49.493Z,93.83
2018-11-13T10:10:18.063Z,93.79
2018-11-13T10:12:46.918Z,93.27
2018-11-13T10:15:18.291Z,93.70
2018-11-13T10:17:46.967Z,93.58
2018-11-13T10:20:16.467Z,93.11
2018-11-13T10:22:47.771Z,94.47
2018-11-13T10:25:17.077Z,94.94
2018-11-13T10:27:46.098Z,94.72
2018-11-13T10:30:16.993Z,95.49
2018-11-13T10:32:47.875Z,95.54
2018-11-13T10:35:19.388Z,95.03
2018-11-13T10:37:47.999Z,94.52
2018-11-13T10:40:17.875Z,93.92
2018-11-13T10:42:47.021Z,93.60
2018-11-13T10:45:18.286Z,93.72
2018-11-13T10:47:47.744Z,93.87
2018-11-13T10:50:18.896Z,94.09
2018-11-13T10:52:47.414Z,93.86
2018-11-13T10:55:16.816Z,93.62
2018-11-13T10:57:46.004Z,93.78
2018-11-13T11:00:21.704Z,94.93
2018-11-13T11:02:55.786Z,94.95
2018-11-13T11:05:26.491Z,95.54
2018-11-13T11:07:55.427Z,94.45
2018-11-13T11:10:24.076Z,94.59
2018-11-13T11:12:52.705Z,94.78
2018-11-13T11:15:21.310Z,95.18
2018-11-13T11:17:49.963Z,94.66
2018-11-13T11:20:18.534Z,94.67
2018-11-13T11:22:47.173Z,94.68
2018-11-13T11:25:16.251Z,95.49
2018-11-13T11:27:45.877Z,95.35
2018-11-13T11:30:15.704Z,94.97
2018-11-13T11:32:44.783Z,94.46
2018-11-13T11:35:13.490Z,94.94
2018-11-13T11:37:42.277Z,94.30
2018-11-13T11:40:11.690Z,94.12
2018-11-13T11:42:40.304Z,93.71
2018-11-13T11:45:10.738Z,93.63
2018-11-13T11:47:40.146Z,93.64
2018-11-13T11:50:10.837Z,93.61
2018-11-13T11:52:39.473Z,93.24
2018-11-13T11:55:08.932Z,93.19
2018-11-13T11:57:38.378Z,93.37
2018-11-13T12:00:11.827Z,93.55
2018-11-13T12:02:41.269Z,93.92
2018-11-13T12:05:11.179Z,93.95
2018-11-13T12:07:39.955Z,93.86
2018-11-13T12:10:11.784Z,94.31
2018-11-13T12:12:41.392Z,94.73
2018-11-13T12:15:11.344Z,95.08
2018-11-13T12:17:41.070Z,95.05
2018-11-13T12:20:12.159Z,94.35
2018-11-13T12:22:41.818Z,94.53
2018-11-13T12:25:13.280Z,94.00
2018-11-13T12:27:43.169Z,94.53
2018-11-13T12:30:15.978Z,94.33
2018-11-13T12:32:46.609Z,94.51
2018-11-13T12:35:17.589Z,94.22
2018-11-13T12:37:47.145Z,94.33
2018-11-13T12:40:17.996Z,93.50
2018-11-13T12:42:48.380Z,93.68
2018-11-13T12:45:18.349Z,94.02
2018-11-13T12:47:47.758Z,93.91
2018-11-13T12:50:18.700Z,93.76
2018-11-13T12:52:47.357Z,93.03
2018-11-13T12:55:22.691Z,92.22
2018-11-13T12:57:52.166Z,92.01
2018-11-13T13:00:23.851Z,92.30
2018-11-13T13:02:53.528Z,92.36
2018-11-13T13:05:23.054Z,91.24
2018-11-13T13:07:52.435Z,91.03
2018-11-13T13:10:21.833Z,89.85
2018-11-13T13:12:51.247Z,89.25
2018-11-13T13:15:20.989Z,89.93
2018-11-13T13:17:49.634Z,90.72
2018-11-13T13:20:24.811Z,90.85
2018-11-13T13:22:54.233Z,90.77
2018-11-13T13:25:24.480Z,90.08
2018-11-13T13:27:53.980Z,90.52
2018-11-13T13:30:24.831Z,90.30
2018-11-13T13:32:54.316Z,90.85
2018-11-13T13:35:40.185Z,92.29
2018-11-13T13:38:10.530Z,92.09
2018-11-13T13:40:40.006Z,91.07
2018-11-13T13:43:10.461Z,91.29
2018-11-13T13:45:40.081Z,92.72
2018-11-13T13:48:09.467Z,92.79
2018-11-13T13:50:38.501Z,92.25
2018-11-13T13:53:07.781Z,91.52
2018-11-13T13:55:36.359Z,91.57
2018-11-13T13:58:05.448Z,91.39
2018-11-13T14:00:34.079Z,91.22
2018-11-13T14:03:02.736Z,91.62
2018-11-13T14:05:31.305Z,91.67
2018-11-13T14:07:59.870Z,92.43
2018-11-13T14:10:28.474Z,92.20
2018-11-13T14:12:57.142Z,92.40
2018-11-13T14:15:25.773Z,92.45
2018-11-13T14:17:54.376Z,92.94
2018-11-13T14:20:22.986Z,93.02
2018-11-13T14:22:51.548Z,93.80
2018-11-13T14:25:20.117Z,93.57
2018-11-13T14:27:48.840Z,93.76
2018-11-13T14:30:22.860Z,93.87
2018-11-13T14:32:52.030Z,94.14
2018-11-13T14:35:20.671Z,94.58
2018-11-13T14:37:49.325Z,94.28
2018-11-13T14:40:20.631Z,94.14
2018-11-13T14:42:49.508Z,94.56
2018-11-13T14:45:18.742Z,94.78
2018-11-13T14:47:48.013Z,94.62
2018-11-13T14:50:19.107Z,94.86
2018-11-13T14:52:48.180Z,95.03
2018-11-13T14:55:19.196Z,95.44
2018-11-13T14:57:48.123Z,94.80
2018-11-13T15:00:21.965Z,95.82
2018-11-13T15:02:51.091Z,95.53
2018-11-13T15:05:20.845Z,94.69
2018-11-13T15:07:50.804Z,94.46
2018-11-13T15:10:25.093Z,95.26
2018-11-13T15:12:54.541Z,95.53
2018-11-13T15:15:23.252Z,95.42
2018-11-13T15:17:51.819Z,95.75
2018-11-13T15:20:20.381Z,95.74
2018-11-13T15:22:48.931Z,96.17
2018-11-13T15:25:17.477Z,96.38
2018-11-13T15:27:47.093Z,96.17
2018-11-13T15:30:18.837Z,96.64
2018-11-13T15:32:51.560Z,96.50
2018-11-13T15:35:21.153Z,97.16
2018-11-13T15:37:49.727Z,97.28
2018-11-13T15:40:21.774Z,97.02
2018-11-13T15:42:50.365Z,96.81
2018-11-13T15:45:19.506Z,97.25
2018-11-13T15:47:50.091Z,97.08
2018-11-13T15:50:23.713Z,97.21
2018-11-13T15:52:53.318Z,96.71
2018-11-13T15:55:22.813Z,97.38
2018-11-13T15:57:52.415Z,97.35
2018-11-13T16:00:27.383Z,97.96
2018-11-13T16:02:57.822Z,97.88
2018-11-13T16:05:32.558Z,97.98
2018-11-13T16:08:03.118Z,97.86
2018-11-13T16:10:32.622Z,97.69
2018-11-13T16:13:02.466Z,96.09
2018-11-13T16:15:31.535Z,95.01
2018-11-13T16:18:02.713Z,95.18
2018-11-13T16:20:32.049Z,94.23
2018-11-13T16:23:01.640Z,95.27
2018-11-13T16:25:30.225Z,95.05
2018-11-13T16:27:58.824Z,96.52
2018-11-13T16:30:30.333Z,96.27
2018-11-13T16:32:59.794Z,96.81
2018-11-13T16:35:30.334Z,96.70
2018-11-13T16:38:01.047Z,96.73
2018-11-13T16:40:31.542Z,97.60
2018-11-13T16:43:01.259Z,97.25
2018-11-13T16:45:31.657Z,98.50
2018-11-13T16:48:02.429Z,98.32
2018-11-13T16:50:32.277Z,98.29
2018-11-13T16:53:01.916Z,98.28
2018-11-13T16:55:36.712Z,98.68
2018-11-13T16:58:07.390Z,98.88
2018-11-13T17:00:36.415Z,98.98
2018-11-13T17:03:04.967Z,99.39
2018-11-13T17:05:34.065Z,99.50
2018-11-13T17:08:02.552Z,99.25
2018-11-13T17:10:32.629Z,99.03
2018-11-13T17:13:01.932Z,99.83
2018-11-13T17:15:32.294Z,99.01
2018-11-13T17:18:01.884Z,99.35
2018-11-13T17:20:31.630Z,99.49
2018-11-13T17:23:00.263Z,98.90
2018-11-13T17:25:31.311Z,98.67
2018-11-13T17:27:59.942Z,98.90
2018-11-13T17:30:31.966Z,98.73
2018-11-13T17:33:03.174Z,98.67
2018-11-13T17:35:32.399Z,97.73
2018-11-13T17:38:03.203Z,96.71
2018-11-13T17:40:33.988Z,97.69
2018-11-13T17:43:04.821Z,97.41
2018-11-13T17:45:37.612Z,97.93
2018-11-13T17:48:07.468Z,96.89
2018-11-13T17:50:37.233Z,95.94
2018-11-13T17:53:06.866Z,95.51
2018-11-13T17:55:35.428Z,96.14
2018-11-13T17:58:06.859Z,95.45
2018-11-13T18:00:37.979Z,96.08
2018-11-13T18:03:07.662Z,95.94
2018-11-13T18:05:37.544Z,96.02
2018-11-13T18:08:07.655Z,95.56
2018-11-13T18:10:37.318Z,96.27
2018-11-13T18:13:06.622Z,96.50
2018-11-13T18:15:35.206Z,96.72
2018-11-13T18:18:04.264Z,96.28
2018-11-13T18:20:34.121Z,96.93
2018-11-13T18:23:02.682Z,96.42
2018-11-13T18:25:31.394Z,96.15
2018-11-13T18:28:00.999Z,96.14
2018-11-13T18:30:33.902Z,96.60
2018-11-13T18:33:03.269Z,96.45
2018-11-13T18:35:33.033Z,96.58
2018-11-13T18:38:03.079Z,96.40
2018-11-13T18:40:31.655Z,96.09
2018-11-13T18:43:01.566Z,96.09
2018-11-13T18:45:31.937Z,96.24
2018-11-13T18:48:00.662Z,96.47
2018-11-13T18:50:30.459Z,96.66
2018-11-13T18:52:59.918Z,96.71
2018-11-13T18:55:28.517Z,97.08
2018-11-13T18:57:57.235Z,97.28
2018-11-13T19:00:27.285Z,97.29
2018-11-13T19:02:55.828Z,97.61
2018-11-13T19:05:25.325Z,97.50
2018-11-13T19:07:54.079Z,97.71
2018-11-13T19:10:28.923Z,97.72
2018-11-13T19:12:58.390Z,97.94
2018-11-13T19:15:27.752Z,98.34
2018-11-13T19:17:56.417Z,98.41
2018-11-13T19:20:26.222Z,98.55
2018-11-13T19:22:54.954Z,98.55
2018-11-13T19:25:26.089Z,98.34
2018-11-13T19:27:57.912Z,98.59
2018-11-13T19:30:26.575Z,98.54
2018-11-13T19:32:59.803Z,98.87
2018-11-13T19:35:36.735Z,98.99
2018-11-13T19:38:08.584Z,98.70
2018-11-13T19:40:41.948Z,98.97
2018-11-13T19:43:12.929Z,99.00
2018-11-13T19:45:41.447Z,99.12
2018-11-13T19:48:10.062Z,98.82
2018-11-13T19:50:39.942Z,99.06
2018-11-13T19:53:08.216Z,98.97
2018-11-13T19:55:37.870Z,98.95
2018-11-13T19:58:06.566Z,99.01
2018-11-13T20:00:37.310Z,99.08
2018-11-13T20:03:08.646Z,99.09
2018-11-13T20:05:37.345Z,99.19
2018-11-13T20:08:07.599Z,99.06
2018-11-13T20:10:37.402Z,99.13
2018-11-13T20:13:06.989Z,99.08
2018-11-13T20:15:36.301Z,99.24
2018-11-13T20:18:06.977Z,99.54
2018-11-13T20:20:37.491Z,99.19
2018-11-13T20:23:12.719Z,99.40
2018-11-13T20:25:43.710Z,99.33
2018-11-13T20:28:17.767Z,99.20
2018-11-13T20:30:50.593Z,99.23
2018-11-13T20:33:27.587Z,99.14
2018-11-13T20:36:02.685Z,99.25
2018-11-13T20:38:38.781Z,99.23
2018-11-13T20:41:19.545Z,99.28
2018-11-13T20:43:51.088Z,99.25
2018-11-13T20:46:19.800Z,99.17
2018-11-13T20:48:48.495Z,99.04
2018-11-13T20:51:17.108Z,99.14
2018-11-13T20:53:46.612Z,99.25
2018-11-13T20:56:16.154Z,99.18
2018-11-13T20:58:45.471Z,99.17
2018-11-13T21:01:14.847Z,99.24
2018-11-13T21:03:44.479Z,99.19
2018-11-13T21:06:13.440Z,99.23
2018-11-13T21:08:42.158Z,99.21
2018-11-13T21:11:10.758Z,99.00
2018-11-13T21:13:39.425Z,98.84
2018-11-13T21:16:09.015Z,98.84
2018-11-13T21:18:37.713Z,98.68
2018-11-13T21:21:07.306Z,98.62
2018-11-13T21:23:36.025Z,98.84
2018-11-13T21:26:04.618Z,98.32
2018-11-13T21:28:33.238Z,98.48
2018-11-13T21:31:02.740Z,98.54
2018-11-13T21:33:31.450Z,98.65
2018-11-13T21:36:00.063Z,98.85
2018-11-13T21:38:28.723Z,99.00
2018-11-13T21:40:57.383Z,98.83
2018-11-13T21:43:26.043Z,99.13
2018-11-13T21:45:54.698Z,99.17
2018-11-13T21:48:23.344Z,99.26
2018-11-13T21:50:52.872Z,99.10
2018-11-13T21:53:21.731Z,99.36
2018-11-13T21:55:51.212Z,99.24
2018-11-13T21:58:20.765Z,99.41
2018-11-13T22:00:49.485Z,99.25
2018-11-13T22:03:19.085Z,99.30
2018-11-13T22:05:48.120Z,99.58
2018-11-13T22:08:16.729Z,99.24
2018-11-13T22:10:46.394Z,99.32
2018-11-13T22:13:16.912Z,99.36
2018-11-13T22:15:46.258Z,99.47
2018-11-13T22:18:16.668Z,99.70
2018-11-13T22:20:46.118Z,99.75
2018-11-13T22:23:16.604Z,99.51
2018-11-13T22:25:46.869Z,99.76
2018-11-13T22:28:16.711Z,99.69
2018-11-13T22:30:46.913Z,99.69
2018-11-13T22:33:15.989Z,99.41
2018-11-13T22:35:45.638Z,99.35
2018-11-13T22:38:16.028Z,99.20
2018-11-13T22:40:45.435Z,99.32
2018-11-13T22:43:15.065Z,99.10
2018-11-13T22:45:45.457Z,99.01
2018-11-13T22:48:15.199Z,99.11
2018-11-13T22:50:45.286Z,99.05
2018-11-13T22:53:14.942Z,98.87
2018-11-13T22:55:44.345Z,98.83
2018-11-13T22:58:12.894Z,98.80
2018-11-13T23:00:46.337Z,98.90
2018-11-13T23:03:15.937Z,98.75
2018-11-13T23:05:45.526Z,98.99
2018-11-13T23:08:17.568Z,98.87
2018-11-13T23:10:47.019Z,98.64
2018-11-13T23:13:16.592Z,98.60
2018-11-13T23:15:46.053Z,98.71
2018-11-13T23:18:15.366Z,98.52
2018-11-13T23:20:45.254Z,98.75
2018-11-13T23:23:15.489Z,98.46
2018-11-13T23:25:45.304Z,98.64
2018-11-13T23:28:14.031Z,98.62
2018-11-13T23:30:42.631Z,98.72
2018-11-13T23:33:11.204Z,98.96
2018-11-13T23:35:40.316Z,98.97
2018-11-13T23:38:08.936Z,98.95
2018-11-13T23:40:37.546Z,99.02
2018-11-13T23:43:07.030Z,98.97
2018-11-13T23:45:37.278Z,98.96
2018-11-13T23:48:08.228Z,98.79
2018-11-13T23:50:45.448Z,98.54
2018-11-13T23:53:17.088Z,98.49
2018-11-13T23:55:48.159Z,98.38
2018-11-13T23:58:19.952Z,97.78
